F/V Cote D'ambre — FPEY — position and weather

sailwx.info

Track history (hours):
 
Tides and Currents Weather Stations Pressure Air Temp Water Temp Dewpoint Dewpoint Depression Visibility Wind Speed Wind Dir Waves Ship Positions

F/V Cote D'ambre

Last reported at 2016-May-25 21:13 UTC. Time now 2016-May-25 22:47 UTC.
Position N 47°44' W 003°22'.

Length 16 m; draft 4 m.

Type: Fishing. MMSI: 227128800.

Date/timePositionNaut miles runAvg speedWind from/ knotsBaromVisibWave heightAir tempDewpointWater temp
2016-May-25 21:13N 47°44' W 003°22'0 0.0
2016-May-25 20:31N 47°44' W 003°22'6 5.9
2016-May-25 19:33N 47°38' W 003°22'9 8.8
2016-May-25 18:33N 47°29' W 003°24'9 9.1
2016-May-25 17:33N 47°20' W 003°27'9 8.9
2016-May-25 16:33N 47°12' W 003°29'7 1.6
2016-May-25 12:12N 47°05' W 003°27'2 3.5
2016-May-25 11:33N 47°07' W 003°27'3 0.9
2016-May-25 08:15N 47°10' W 003°30'2 2.7
2016-May-25 07:33N 47°11' W 003°30'4 2.7
2016-May-25 06:12N 47°14' W 003°34'3 3.3
2016-May-25 05:20N 47°17' W 003°35'3 3.4
2016-May-25 04:33N 47°19' W 003°36'7 6.8
2016-May-25 03:33N 47°25' W 003°31'9 8.5
2016-May-25 02:34N 47°33' W 003°25'8 8.2
2016-May-25 01:34N 47°41' W 003°22'3 2.9
2016-May-25 00:31N 47°44' W 003°22'7 6.9
2016-May-24 23:33N 47°37' W 003°22'9 8.8
2016-May-24 22:33N 47°29' W 003°26'8 8.4
2016-May-24 21:33N 47°21' W 003°29'7 7.2
2016-May-24 20:33N 47°14' W 003°32'3 3.0
2016-May-24 19:31N 47°11' W 003°30'3 3.4
2016-May-24 18:33N 47°08' W 003°29'2 0.8
2016-May-24 16:29N 47°07' W 003°27'3 3.3
2016-May-24 15:25N 47°10' W 003°27'1 1.6
2016-May-24 14:33N 47°10' W 003°29'5 4.5
2016-May-24 13:33N 47°14' W 003°32'1 1.5
2016-May-24 12:33N 47°14' W 003°34'2 1.4
2016-May-24 11:30N 47°15' W 003°36'3 3.5
2016-May-24 10:33N 47°17' W 003°32'5 4.7
2016-May-24 09:33N 47°20' W 003°27'1 1.3
2016-May-24 08:33N 47°21' W 003°25'1 1.3
2016-May-24 07:33N 47°20' W 003°23'3 3.3
2016-May-24 06:33N 47°17' W 003°21'2 1.9
2016-May-24 05:33N 47°16' W 003°18'4 3.5
2016-May-24 04:33N 47°18' W 003°23'6 6.4
2016-May-24 03:33N 47°25' W 003°24'8 8.2
2016-May-24 02:33N 47°33' W 003°23'9 8.7
2016-May-24 01:33N 47°41' W 003°22'2 2.3
2016-May-24 00:31N 47°44' W 003°22'3 3.4
2016-May-23 23:33N 47°40' W 003°22'8 8.4
2016-May-23 22:33N 47°32' W 003°23'8 8.2
2016-May-23 21:33N 47°24' W 003°24'5 5.5
2016-May-23 20:33N 47°18' W 003°24'3 3.3
2016-May-23 19:33N 47°17' W 003°20'0 0.1
2016-May-23 18:33N 47°17' W 003°20'4 3.7
2016-May-23 17:33N 47°19' W 003°24'3 2.7
2016-May-23 16:33N 47°20' W 003°27'2 1.9
2016-May-23 15:33N 47°20' W 003°30'3 3.3
2016-May-23 14:33N 47°20' W 003°25'1 0.8
2016-May-23 13:33N 47°20' W 003°26'0 0.5
2016-May-23 12:33N 47°20' W 003°26'4 3.6
2016-May-23 11:33N 47°20' W 003°31'3 2.8
2016-May-23 10:33N 47°20' W 003°27'1 1.0
2016-May-23 09:33N 47°20' W 003°25'3 3.2
2016-May-23 08:33N 47°20' W 003°30'1 1.2
2016-May-23 07:34N 47°20' W 003°28'3 2.7
2016-May-23 06:33N 47°19' W 003°24'3 3.4
2016-May-23 05:34N 47°22' W 003°28'4 3.7
2016-May-23 04:34N 47°25' W 003°29'6 6.4
2016-May-23 03:34N 47°31' W 003°26'8 8.4
2016-May-23 02:34N 47°39' W 003°22'5 0.1
2016-May-21 02:13N 47°44' W 003°22'0 0.0
2016-May-21 01:31N 47°44' W 003°22'0 0.0
2016-May-21 00:31N 47°44' W 003°22'0 0.0
2016-May-20 23:31N 47°44' W 003°22'3 3.5
2016-May-20 22:33N 47°40' W 003°22'9 8.8
2016-May-20 21:33N 47°32' W 003°24'9 8.5
2016-May-20 20:33N 47°24' W 003°28'11 4.8
2016-May-20 18:16N 47°13' W 003°34'0 0.2
2016-May-20 16:05N 47°14' W 003°34'1 2.4
2016-May-20 15:31N 47°13' W 003°36'1 0.6
2016-May-20 13:34N 47°14' W 003°34'1 1.4
2016-May-20 12:34N 47°15' W 003°35'3 3.1
2016-May-20 11:33N 47°12' W 003°37'3 1.3
2016-May-20 09:31N 47°14' W 003°34'2 2.5
2016-May-20 08:33N 47°13' W 003°37'4 1.2
2016-May-20 05:25N 47°17' W 003°35'3 3.5
2016-May-20 04:33N 47°20' W 003°35'6 6.2
2016-May-20 03:33N 47°25' W 003°30'8 8.2
2016-May-20 02:33N 47°32' W 003°24'8 8.5
2016-May-20 01:33N 47°41' W 003°22'3 3.0
2016-May-20 00:31N 47°44' W 003°22'5 5.3
2016-May-19 23:33N 47°39' W 003°22'7 7.2
2016-May-19 22:33N 47°32' W 003°26'7 7.4
2016-May-19 21:33N 47°26' W 003°32'6 6.1
2016-May-19 20:32N 47°20' W 003°36'3 3.2
2016-May-19 19:33N 47°17' W 003°34'3 2.6
2016-May-19 18:33N 47°15' W 003°34'1 0.4
2016-May-19 16:25N 47°15' W 003°35'2 2.2
2016-May-19 15:31N 47°13' W 003°37'9 1.8
2016-May-19 10:31N 47°08' W 003°47'9 2.1
2016-May-19 06:22N 47°16' W 003°41'3 3.6
2016-May-19 05:33N 47°18' W 003°38'4 3.7
2016-May-19 04:33N 47°20' W 003°34'8 8.0
2016-May-19 03:34N 47°27' W 003°28'9 8.8
2016-May-19 02:33N 47°35' W 003°23'9 8.7
2016-May-19 01:33N 47°44' W 003°22'0 0.0
2016-May-19 00:33N 47°44' W 003°22'6 5.7
2016-May-18 23:33N 47°38' W 003°22'7 7.5
2016-May-18 22:33N 47°31' W 003°26'8 7.6
2016-May-18 21:33N 47°25' W 003°32'10 4.6
2016-May-18 19:20N 47°15' W 003°37'2 3.0
2016-May-18 18:33N 47°17' W 003°36'4 4.5
2016-May-18 17:33N 47°13' W 003°39'0 0.3
2016-May-18 16:31N 47°13' W 003°38'4 0.4
2016-May-18 06:05N 47°17' W 003°38'2 3.6
2016-May-18 05:33N 47°18' W 003°36'4 4.1
2016-May-18 04:33N 47°22' W 003°33'7 7.1
2016-May-18 03:33N 47°28' W 003°28'7 6.9
2016-May-18 02:33N 47°34' W 003°23'7 7.5
2016-May-18 01:33N 47°42' W 003°22'2 2.1
2016-May-18 00:33N 47°44' W 003°22'3 2.9
2016-May-17 23:33N 47°41' W 003°22'8 8.3
2016-May-17 22:33N 47°33' W 003°24'9 8.7
2016-May-17 21:34N 47°25' W 003°30'7 2.8
2016-May-17 19:11N 47°19' W 003°35'6 1.9
2016-May-17 16:07N 47°14' W 003°32'2 2.9
2016-May-17 15:33N 47°13' W 003°35'3 3.2
2016-May-17 14:33N 47°13' W 003°39'4 3.7
2016-May-17 13:33N 47°09' W 003°37'0 0.0
2016-May-17 11:16N 47°09' W 003°37'3 1.2
2016-May-17 08:19N 47°12' W 003°41'3 3.0
2016-May-17 07:28N 47°14' W 003°41'6 2.9
2016-May-17 05:33N 47°19' W 003°38'4 3.9
2016-May-17 04:33N 47°21' W 003°33'8 8.1
2016-May-17 03:33N 47°28' W 003°27'9 8.5
2016-May-17 02:33N 47°36' W 003°22'8 7.9
2016-May-17 01:31N 47°44' W 003°22'2 1.7
2016-May-17 00:33N 47°42' W 003°22'7 7.3
2016-May-16 23:33N 47°35' W 003°23'7 7.4
2016-May-16 22:34N 47°28' W 003°26'7 7.3
2016-May-16 21:34N 47°21' W 003°29'5 5.1
2016-May-16 20:34N 47°16' W 003°32'3 2.9
2016-May-16 19:24N 47°14' W 003°36'3 3.4
2016-May-16 18:28N 47°12' W 003°40'5 5.4
2016-May-16 17:33N 47°09' W 003°44'9 0.8
2016-May-16 05:30N 47°17' W 003°38'8 7.9
2016-May-16 04:33N 47°24' W 003°32'8 8.1
2016-May-16 03:34N 47°31' W 003°26'8 8.1
2016-May-16 02:33N 47°38' W 003°22'  
Track history (hours):
 
Tides and Currents Weather Stations Pressure Air Temp Water Temp Dewpoint Dewpoint Depression Visibility Wind Speed Wind Dir Waves Ship Positions

F/V Cote D'ambre

Last reported at 2016-May-25 21:13 UTC. Time now 2016-May-25 22:47 UTC.
Position N 47°44' W 003°22'.

Length 16 m; draft 4 m.

Type: Fishing. MMSI: 227128800.

Date/timePositionNaut miles runAvg speedWind from/ knotsBaromVisibWave heightAir tempDewpointWater temp
2016-May-25 21:13N 47°44' W 003°22'0 0.0
2016-May-25 20:31N 47°44' W 003°22'6 5.9
2016-May-25 19:33N 47°38' W 003°22'9 8.8
2016-May-25 18:33N 47°29' W 003°24'9 9.1
2016-May-25 17:33N 47°20' W 003°27'9 8.9
2016-May-25 16:33N 47°12' W 003°29'7 1.6
2016-May-25 12:12N 47°05' W 003°27'2 3.5
2016-May-25 11:33N 47°07' W 003°27'3 0.9
2016-May-25 08:15N 47°10' W 003°30'2 2.7
2016-May-25 07:33N 47°11' W 003°30'4 2.7
2016-May-25 06:12N 47°14' W 003°34'3 3.3
2016-May-25 05:20N 47°17' W 003°35'3 3.4
2016-May-25 04:33N 47°19' W 003°36'7 6.8
2016-May-25 03:33N 47°25' W 003°31'9 8.5
2016-May-25 02:34N 47°33' W 003°25'8 8.2
2016-May-25 01:34N 47°41' W 003°22'3 2.9
2016-May-25 00:31N 47°44' W 003°22'7 6.9
2016-May-24 23:33N 47°37' W 003°22'9 8.8
2016-May-24 22:33N 47°29' W 003°26'8 8.4
2016-May-24 21:33N 47°21' W 003°29'7 7.2
2016-May-24 20:33N 47°14' W 003°32'3 3.0
2016-May-24 19:31N 47°11' W 003°30'3 3.4
2016-May-24 18:33N 47°08' W 003°29'2 0.8
2016-May-24 16:29N 47°07' W 003°27'3 3.3
2016-May-24 15:25N 47°10' W 003°27'1 1.6
2016-May-24 14:33N 47°10' W 003°29'5 4.5
2016-May-24 13:33N 47°14' W 003°32'1 1.5
2016-May-24 12:33N 47°14' W 003°34'2 1.4
2016-May-24 11:30N 47°15' W 003°36'3 3.5
2016-May-24 10:33N 47°17' W 003°32'5 4.7
2016-May-24 09:33N 47°20' W 003°27'1 1.3
2016-May-24 08:33N 47°21' W 003°25'1 1.3
2016-May-24 07:33N 47°20' W 003°23'3 3.3
2016-May-24 06:33N 47°17' W 003°21'2 1.9
2016-May-24 05:33N 47°16' W 003°18'4 3.5
2016-May-24 04:33N 47°18' W 003°23'6 6.4
2016-May-24 03:33N 47°25' W 003°24'8 8.2
2016-May-24 02:33N 47°33' W 003°23'9 8.7
2016-May-24 01:33N 47°41' W 003°22'2 2.3
2016-May-24 00:31N 47°44' W 003°22'3 3.4
2016-May-23 23:33N 47°40' W 003°22'8 8.4
2016-May-23 22:33N 47°32' W 003°23'8 8.2
2016-May-23 21:33N 47°24' W 003°24'5 5.5
2016-May-23 20:33N 47°18' W 003°24'3 3.3
2016-May-23 19:33N 47°17' W 003°20'0 0.1
2016-May-23 18:33N 47°17' W 003°20'4 3.7
2016-May-23 17:33N 47°19' W 003°24'3 2.7
2016-May-23 16:33N 47°20' W 003°27'2 1.9
2016-May-23 15:33N 47°20' W 003°30'3 3.3
2016-May-23 14:33N 47°20' W 003°25'1 0.8
2016-May-23 13:33N 47°20' W 003°26'0 0.5
2016-May-23 12:33N 47°20' W 003°26'4 3.6
2016-May-23 11:33N 47°20' W 003°31'3 2.8
2016-May-23 10:33N 47°20' W 003°27'1 1.0
2016-May-23 09:33N 47°20' W 003°25'3 3.2
2016-May-23 08:33N 47°20' W 003°30'1 1.2
2016-May-23 07:34N 47°20' W 003°28'3 2.7
2016-May-23 06:33N 47°19' W 003°24'3 3.4
2016-May-23 05:34N 47°22' W 003°28'4 3.7
2016-May-23 04:34N 47°25' W 003°29'6 6.4
2016-May-23 03:34N 47°31' W 003°26'8 8.4
2016-May-23 02:34N 47°39' W 003°22'5 0.1
2016-May-21 02:13N 47°44' W 003°22'0 0.0
2016-May-21 01:31N 47°44' W 003°22'0 0.0
2016-May-21 00:31N 47°44' W 003°22'0 0.0
2016-May-20 23:31N 47°44' W 003°22'3 3.5
2016-May-20 22:33N 47°40' W 003°22'9 8.8
2016-May-20 21:33N 47°32' W 003°24'9 8.5
2016-May-20 20:33N 47°24' W 003°28'11 4.8
2016-May-20 18:16N 47°13' W 003°34'0 0.2
2016-May-20 16:05N 47°14' W 003°34'1 2.4
2016-May-20 15:31N 47°13' W 003°36'1 0.6
2016-May-20 13:34N 47°14' W 003°34'1 1.4
2016-May-20 12:34N 47°15' W 003°35'3 3.1
2016-May-20 11:33N 47°12' W 003°37'3 1.3
2016-May-20 09:31N 47°14' W 003°34'2 2.5
2016-May-20 08:33N 47°13' W 003°37'4 1.2
2016-May-20 05:25N 47°17' W 003°35'3 3.5
2016-May-20 04:33N 47°20' W 003°35'6 6.2
2016-May-20 03:33N 47°25' W 003°30'8 8.2
2016-May-20 02:33N 47°32' W 003°24'8 8.5
2016-May-20 01:33N 47°41' W 003°22'3 3.0
2016-May-20 00:31N 47°44' W 003°22'5 5.3
2016-May-19 23:33N 47°39' W 003°22'7 7.2
2016-May-19 22:33N 47°32' W 003°26'7 7.4
2016-May-19 21:33N 47°26' W 003°32'6 6.1
2016-May-19 20:32N 47°20' W 003°36'3 3.2
2016-May-19 19:33N 47°17' W 003°34'3 2.6
2016-May-19 18:33N 47°15' W 003°34'1 0.4
2016-May-19 16:25N 47°15' W 003°35'2 2.2
2016-May-19 15:31N 47°13' W 003°37'9 1.8
2016-May-19 10:31N 47°08' W 003°47'9 2.1
2016-May-19 06:22N 47°16' W 003°41'3 3.6
2016-May-19 05:33N 47°18' W 003°38'4 3.7
2016-May-19 04:33N 47°20' W 003°34'8 8.0
2016-May-19 03:34N 47°27' W 003°28'9 8.8
2016-May-19 02:33N 47°35' W 003°23'9 8.7
2016-May-19 01:33N 47°44' W 003°22'0 0.0
2016-May-19 00:33N 47°44' W 003°22'6 5.7
2016-May-18 23:33N 47°38' W 003°22'7 7.5
2016-May-18 22:33N 47°31' W 003°26'8 7.6
2016-May-18 21:33N 47°25' W 003°32'10 4.6
2016-May-18 19:20N 47°15' W 003°37'2 3.0
2016-May-18 18:33N 47°17' W 003°36'4 4.5
2016-May-18 17:33N 47°13' W 003°39'0 0.3
2016-May-18 16:31N 47°13' W 003°38'4 0.4
2016-May-18 06:05N 47°17' W 003°38'2 3.6
2016-May-18 05:33N 47°18' W 003°36'4 4.1
2016-May-18 04:33N 47°22' W 003°33'7 7.1
2016-May-18 03:33N 47°28' W 003°28'7 6.9
2016-May-18 02:33N 47°34' W 003°23'7 7.5
2016-May-18 01:33N 47°42' W 003°22'2 2.1
2016-May-18 00:33N 47°44' W 003°22'3 2.9
2016-May-17 23:33N 47°41' W 003°22'8 8.3
2016-May-17 22:33N 47°33' W 003°24'9 8.7
2016-May-17 21:34N 47°25' W 003°30'7 2.8
2016-May-17 19:11N 47°19' W 003°35'6 1.9
2016-May-17 16:07N 47°14' W 003°32'2 2.9
2016-May-17 15:33N 47°13' W 003°35'3 3.2
2016-May-17 14:33N 47°13' W 003°39'4 3.7
2016-May-17 13:33N 47°09' W 003°37'0 0.0
2016-May-17 11:16N 47°09' W 003°37'3 1.2
2016-May-17 08:19N 47°12' W 003°41'3 3.0
2016-May-17 07:28N 47°14' W 003°41'6 2.9
2016-May-17 05:33N 47°19' W 003°38'4 3.9
2016-May-17 04:33N 47°21' W 003°33'8 8.1
2016-May-17 03:33N 47°28' W 003°27'9 8.5
2016-May-17 02:33N 47°36' W 003°22'8 7.9
2016-May-17 01:31N 47°44' W 003°22'2 1.7
2016-May-17 00:33N 47°42' W 003°22'7 7.3
2016-May-16 23:33N 47°35' W 003°23'7 7.4
2016-May-16 22:34N 47°28' W 003°26'7 7.3
2016-May-16 21:34N 47°21' W 003°29'5 5.1
2016-May-16 20:34N 47°16' W 003°32'3 2.9
2016-May-16 19:24N 47°14' W 003°36'3 3.4
2016-May-16 18:28N 47°12' W 003°40'5 5.4
2016-May-16 17:33N 47°09' W 003°44'9 0.8
2016-May-16 05:30N 47°17' W 003°38'8 7.9
2016-May-16 04:33N 47°24' W 003°32'8 8.1
2016-May-16 03:34N 47°31' W 003°26'8 8.1
2016-May-16 02:33N 47°38' W 003°22'  

Dump ship's entire track history